Time;durP1;ratioP1;P1;durP2;ratioP2;P2;SDS_P1;SDS_P2;PMS_P1;PMS_P2;Temp;Humidity;BMP_temperature;BMP_pressure;BME280_temperature;BME280_humidity;BME280_pressure;Samples;Min_cycle;Max_cycle;Signal;HPM_P1;HPM_P2
2022/10/25 00:00:28;;;;;;;;;;;12.90;99.90;;;;;;4996737;28;19909;-64
2022/10/25 00:02:54;;;;;;;;;;;13.00;99.90;;;;;;4994969;28;19918;-64
2022/10/25 00:05:19;;;;;;;;;;;13.00;99.90;;;;;;4993818;28;19917;-65
2022/10/25 00:07:45;;;;;;;;;;;12.90;99.90;;;;;;5003832;28;19925;-65
2022/10/25 00:10:11;;;;;;;;;;;12.90;99.90;;;;;;4997145;28;19910;-65
2022/10/25 00:12:40;;;;;;;;;;;12.90;99.90;;;;;;4995554;28;19914;-65
2022/10/25 00:15:06;;;;;;;;;;;12.80;99.90;;;;;;4991371;28;19955;-65
2022/10/25 00:17:32;;;;;;;;;;;12.70;99.90;;;;;;4990683;28;19992;-65
2022/10/25 00:19:57;;;;;;;;;;;12.70;99.90;;;;;;4993030;28;19956;-65
2022/10/25 00:22:23;;;;;;;;;;;12.70;99.90;;;;;;4994488;28;19949;-64
2022/10/25 00:24:48;;;;;;;;;;;12.70;99.90;;;;;;5004220;28;20375;-65
2022/10/25 00:27:14;;;;;;;;;;;12.80;99.90;;;;;;4996899;28;19918;-65
2022/10/25 00:29:40;;;;;;;;;;;12.70;99.90;;;;;;5006341;28;20268;-64
2022/10/25 00:32:05;;;;;;;;;;;12.60;99.90;;;;;;5000202;28;20000;-64
2022/10/25 00:34:31;;;;;;;;;;;12.50;99.90;;;;;;4996697;28;19917;-66
2022/10/25 00:36:56;;;;;;;;;;;12.40;99.90;;;;;;4997778;28;19913;-65
2022/10/25 00:39:22;;;;;;;;;;;12.20;99.90;;;;;;4996854;28;19917;-64
2022/10/25 00:41:47;;;;;;;;;;;12.00;99.90;;;;;;5000897;28;19910;-63
2022/10/25 00:44:31;;;;;;;;;;;11.90;99.90;;;;;;4997853;28;19941;-65
2022/10/25 00:46:57;;;;;;;;;;;11.90;99.90;;;;;;5000889;28;19924;-65
2022/10/25 00:49:22;;;;;;;;;;;12.00;99.90;;;;;;4997186;28;19911;-64
2022/10/25 00:51:50;;;;;;;;;;;12.10;99.90;;;;;;4996964;28;20346;-64
2022/10/25 00:54:19;;;;;;;;;;;12.20;99.90;;;;;;4991337;28;19955;-65
2022/10/25 00:56:46;;;;;;;;;;;12.30;99.90;;;;;;4995129;28;19935;-66
2022/10/25 00:59:14;;;;;;;;;;;12.40;99.90;;;;;;4991291;28;19910;-65
2022/10/25 01:01:40;;;;;;;;;;;12.50;99.90;;;;;;4989717;28;19917;-65
2022/10/25 01:04:08;;;;;;;;;;;12.50;99.90;;;;;;4997203;28;20015;-65
2022/10/25 01:06:36;;;;;;;;;;;12.60;99.90;;;;;;4995982;28;19949;-65
2022/10/25 01:09:03;;;;;;;;;;;12.70;99.90;;;;;;4995511;28;20420;-65
2022/10/25 01:11:28;;;;;;;;;;;12.70;99.90;;;;;;4993516;28;20065;-65
2022/10/25 01:13:54;;;;;;;;;;;12.60;99.90;;;;;;4994608;28;20377;-64
2022/10/25 01:16:20;;;;;;;;;;;12.50;99.90;;;;;;4994511;28;20012;-65
2022/10/25 01:18:53;;;;;;;;;;;12.60;99.90;;;;;;4999835;28;19960;-65
2022/10/25 01:21:27;;;;;;;;;;;12.60;99.90;;;;;;4992360;28;19910;-65
2022/10/25 01:24:07;;;;;;;;;;;12.70;99.90;;;;;;4998457;28;19917;-64
2022/10/25 01:26:58;;;;;;;;;;;12.80;99.90;;;;;;4995752;28;19936;-64
2022/10/25 01:29:38;;;;;;;;;;;12.90;99.90;;;;;;4988950;28;19916;-66
2022/10/25 01:32:12;;;;;;;;;;;12.90;99.90;;;;;;4992609;28;19956;-66
2022/10/25 01:34:44;;;;;;;;;;;12.90;99.90;;;;;;5002274;28;19909;-66
2022/10/25 01:37:13;;;;;;;;;;;13.00;99.90;;;;;;4986196;28;19913;-65
2022/10/25 01:39:44;;;;;;;;;;;13.00;99.90;;;;;;5001524;28;19917;-65
2022/10/25 01:42:12;;;;;;;;;;;13.10;99.90;;;;;;4986226;28;19910;-65
2022/10/25 01:44:43;;;;;;;;;;;13.10;99.90;;;;;;5003668;28;19909;-66
2022/10/25 01:47:09;;;;;;;;;;;13.10;99.90;;;;;;5004648;28;20013;-65
2022/10/25 01:49:44;;;;;;;;;;;13.10;99.90;;;;;;4993722;28;19997;-65
2022/10/25 01:52:09;;;;;;;;;;;13.00;99.90;;;;;;4996436;28;19909;-65
2022/10/25 01:54:35;;;;;;;;;;;13.00;99.90;;;;;;4993426;28;19956;-65
2022/10/25 01:57:12;;;;;;;;;;;12.90;99.90;;;;;;4994272;28;19916;-65
2022/10/25 01:59:47;;;;;;;;;;;13.00;99.90;;;;;;4993081;28;19909;-65
2022/10/25 02:05:34;;;;;;;;;;;13.10;99.90;;;;;;4996495;28;20285;-64
2022/10/25 02:07:59;;;;;;;;;;;13.20;99.90;;;;;;4988587;28;20258;-63
2022/10/25 02:10:25;;;;;;;;;;;13.30;99.90;;;;;;4998065;28;19925;-64
2022/10/25 02:12:50;;;;;;;;;;;13.30;99.90;;;;;;4997669;28;19909;-63
2022/10/25 02:15:26;;;;;;;;;;;13.20;99.90;;;;;;4992809;28;19910;-64
2022/10/25 02:17:55;;;;;;;;;;;13.20;99.90;;;;;;4991425;28;19909;-64
2022/10/25 02:20:21;;;;;;;;;;;13.10;99.90;;;;;;4992212;28;19913;-63
2022/10/25 02:22:47;;;;;;;;;;;13.00;99.90;;;;;;4993311;28;20008;-63
2022/10/25 02:25:13;;;;;;;;;;;13.00;99.90;;;;;;4998704;28;19957;-63
2022/10/25 02:27:39;;;;;;;;;;;13.20;99.90;;;;;;4998108;28;19999;-63
2022/10/25 02:30:05;;;;;;;;;;;13.20;99.90;;;;;;4997946;28;19918;-64
2022/10/25 02:32:31;;;;;;;;;;;13.20;99.90;;;;;;4994839;28;20044;-63
2022/10/25 02:34:56;;;;;;;;;;;13.20;99.90;;;;;;4999336;28;20004;-63
2022/10/25 02:37:22;;;;;;;;;;;13.20;99.90;;;;;;4995959;28;19918;-64
2022/10/25 02:39:48;;;;;;;;;;;13.30;99.90;;;;;;4998913;28;20007;-64
2022/10/25 02:42:13;;;;;;;;;;;13.30;99.90;;;;;;5000319;28;19917;-64
2022/10/25 02:44:39;;;;;;;;;;;13.30;99.90;;;;;;5002497;28;19909;-64
2022/10/25 02:47:04;;;;;;;;;;;13.30;99.90;;;;;;5001762;28;20339;-64
2022/10/25 02:49:30;;;;;;;;;;;13.40;99.90;;;;;;4996889;28;19916;-64
2022/10/25 02:51:55;;;;;;;;;;;13.40;99.90;;;;;;4992787;28;19932;-64
2022/10/25 02:54:21;;;;;;;;;;;13.50;99.90;;;;;;4991882;28;20370;-64
2022/10/25 02:56:51;;;;;;;;;;;13.60;99.90;;;;;;4990106;28;19952;-64
2022/10/25 02:59:17;;;;;;;;;;;13.50;99.90;;;;;;4992064;28;20313;-63
2022/10/25 03:04:45;;;;;;;;;;;13.50;99.90;;;;;;4995320;28;19948;-63
2022/10/25 03:07:10;;;;;;;;;;;13.50;99.90;;;;;;4994332;28;19918;-63
2022/10/25 03:09:36;;;;;;;;;;;13.60;99.90;;;;;;4999081;28;20416;-64
2022/10/25 03:12:01;;;;;;;;;;;13.50;99.90;;;;;;4995157;28;20314;-63
2022/10/25 03:14:27;;;;;;;;;;;13.60;99.90;;;;;;4995735;28;19917;-63
2022/10/25 03:16:52;;;;;;;;;;;13.40;99.90;;;;;;4995815;28;19910;-64
2022/10/25 03:19:18;;;;;;;;;;;13.30;99.90;;;;;;4997377;28;19961;-63
2022/10/25 03:21:43;;;;;;;;;;;13.30;99.90;;;;;;4994774;28;19909;-63
2022/10/25 03:24:09;;;;;;;;;;;13.30;99.90;;;;;;4988694;28;19916;-63
2022/10/25 03:26:35;;;;;;;;;;;13.20;99.90;;;;;;4995157;28;19917;-64
2022/10/25 03:29:00;;;;;;;;;;;13.20;99.90;;;;;;4996845;28;20316;-65
2022/10/25 03:31:26;;;;;;;;;;;13.10;99.90;;;;;;4993999;28;19910;-65
2022/10/25 03:33:51;;;;;;;;;;;13.30;99.90;;;;;;4996829;28;20025;-65
2022/10/25 03:36:17;;;;;;;;;;;13.40;99.90;;;;;;4997071;28;20346;-65
2022/10/25 03:38:42;;;;;;;;;;;13.50;99.90;;;;;;4997022;28;20053;-65
2022/10/25 03:41:08;;;;;;;;;;;13.50;99.90;;;;;;4998695;28;19916;-64
2022/10/25 03:43:33;;;;;;;;;;;13.60;99.90;;;;;;5000010;28;20369;-64
2022/10/25 03:45:59;;;;;;;;;;;13.80;99.90;;;;;;4994735;28;19910;-65
2022/10/25 03:48:24;;;;;;;;;;;13.80;99.90;;;;;;4996024;28;19909;-64
2022/10/25 03:50:50;;;;;;;;;;;13.80;99.90;;;;;;4993433;28;19910;-66
2022/10/25 03:53:15;;;;;;;;;;;13.80;99.90;;;;;;4993478;28;19910;-64
2022/10/25 03:55:41;;;;;;;;;;;13.90;99.90;;;;;;4994194;28;20281;-64
2022/10/25 03:58:06;;;;;;;;;;;13.90;99.90;;;;;;4992451;28;20007;-66
2022/10/25 04:00:32;;;;;;;;;;;13.90;99.90;;;;;;4993090;28;20341;-64
2022/10/25 04:02:59;;;;;;;;;;;13.80;99.90;;;;;;4995800;28;19925;-64
2022/10/25 04:05:25;;;;;;;;;;;13.80;99.90;;;;;;4999213;28;19917;-64
2022/10/25 04:07:50;;;;;;;;;;;13.90;99.90;;;;;;4994078;28;19918;-64
2022/10/25 04:10:18;;;;;;;;;;;13.90;99.90;;;;;;4991215;28;20273;-64
2022/10/25 04:12:43;;;;;;;;;;;13.80;99.90;;;;;;5000185;28;19920;-63
2022/10/25 04:15:09;;;;;;;;;;;13.90;99.90;;;;;;4993635;28;19910;-63
2022/10/25 04:17:34;;;;;;;;;;;13.90;99.90;;;;;;5006256;28;20496;-63
2022/10/25 04:20:00;;;;;;;;;;;14.00;99.90;;;;;;4989143;28;19989;-63
2022/10/25 04:22:25;;;;;;;;;;;13.90;99.90;;;;;;4996710;28;19932;-64
2022/10/25 04:24:51;;;;;;;;;;;13.90;99.90;;;;;;5003918;28;19916;-63
2022/10/25 04:27:16;;;;;;;;;;;13.90;99.90;;;;;;4996981;28;19933;-63
2022/10/25 04:29:42;;;;;;;;;;;13.90;99.90;;;;;;4997724;28;19916;-63
2022/10/25 04:32:07;;;;;;;;;;;14.00;99.90;;;;;;4995569;28;19960;-63
2022/10/25 04:34:33;;;;;;;;;;;14.00;99.90;;;;;;4992297;28;19910;-63
2022/10/25 04:36:58;;;;;;;;;;;14.10;99.90;;;;;;4998013;28;19909;-64
2022/10/25 04:39:25;;;;;;;;;;;14.00;99.90;;;;;;4999144;28;19956;-65
2022/10/25 04:41:50;;;;;;;;;;;13.90;99.90;;;;;;5004953;28;19909;-63
2022/10/25 04:44:16;;;;;;;;;;;13.80;99.90;;;;;;4997469;28;20004;-64
2022/10/25 04:46:42;;;;;;;;;;;13.80;99.90;;;;;;4997613;28;20211;-64
2022/10/25 04:49:10;;;;;;;;;;;13.70;99.90;;;;;;4989681;28;19964;-63
2022/10/25 04:51:35;;;;;;;;;;;13.80;99.90;;;;;;4993941;28;20412;-64
2022/10/25 04:54:01;;;;;;;;;;;13.90;99.90;;;;;;4988488;28;20385;-64
2022/10/25 04:56:27;;;;;;;;;;;13.90;99.90;;;;;;4994316;28;19909;-65
2022/10/25 04:58:52;;;;;;;;;;;14.00;99.90;;;;;;4995969;28;19909;-64
2022/10/25 05:01:18;;;;;;;;;;;13.90;99.90;;;;;;4992990;28;19910;-65
2022/10/25 05:03:43;;;;;;;;;;;13.80;99.90;;;;;;4997785;28;19922;-64
2022/10/25 05:06:09;;;;;;;;;;;13.70;99.90;;;;;;4988038;28;20293;-64
2022/10/25 05:08:35;;;;;;;;;;;13.70;99.90;;;;;;5001213;28;19909;-64
2022/10/25 05:11:00;;;;;;;;;;;13.70;99.90;;;;;;5001376;28;19916;-63
2022/10/25 05:13:26;;;;;;;;;;;13.80;99.90;;;;;;4998067;28;19910;-64
2022/10/25 05:15:55;;;;;;;;;;;13.80;99.90;;;;;;4994435;28;20286;-64
2022/10/25 05:18:20;;;;;;;;;;;13.90;99.90;;;;;;4992450;28;19909;-63
2022/10/25 05:20:53;;;;;;;;;;;13.90;99.90;;;;;;4995063;28;19909;-63
2022/10/25 05:23:19;;;;;;;;;;;14.00;99.90;;;;;;4990424;28;20416;-62
2022/10/25 05:25:44;;;;;;;;;;;14.00;99.90;;;;;;4994014;28;19918;-63
2022/10/25 05:28:10;;;;;;;;;;;14.10;99.90;;;;;;5000678;28;20387;-65
2022/10/25 05:30:38;;;;;;;;;;;14.00;99.90;;;;;;4993251;28;20277;-64
2022/10/25 05:33:04;;;;;;;;;;;14.00;99.90;;;;;;4992983;28;19910;-64
2022/10/25 05:35:29;;;;;;;;;;;13.90;99.90;;;;;;4986081;28;19956;-64
2022/10/25 05:37:55;;;;;;;;;;;13.90;99.90;;;;;;4997331;28;19909;-63
2022/10/25 05:40:20;;;;;;;;;;;13.90;99.90;;;;;;4978519;28;19933;-64
2022/10/25 05:42:46;;;;;;;;;;;13.90;99.90;;;;;;4989115;28;19910;-64
2022/10/25 05:45:11;;;;;;;;;;;13.80;99.90;;;;;;4988351;28;19917;-64
2022/10/25 05:47:37;;;;;;;;;;;13.80;99.90;;;;;;4994042;28;19922;-64
2022/10/25 05:50:03;;;;;;;;;;;13.90;99.90;;;;;;4991710;28;19909;-64
2022/10/25 05:52:28;;;;;;;;;;;13.90;99.90;;;;;;4987622;28;19921;-64
2022/10/25 05:54:54;;;;;;;;;;;13.90;99.90;;;;;;4992805;28;20438;-64
2022/10/25 05:57:19;;;;;;;;;;;14.00;99.90;;;;;;4988139;28;19913;-65
2022/10/25 05:59:45;;;;;;;;;;;14.10;99.90;;;;;;4987977;28;20309;-64
2022/10/25 06:02:11;;;;;;;;;;;14.10;99.90;;;;;;4982588;28;20045;-65
2022/10/25 06:04:36;;;;;;;;;;;14.00;99.90;;;;;;4993157;28;20012;-66
2022/10/25 06:07:02;;;;;;;;;;;14.10;99.90;;;;;;4989963;28;19918;-65
2022/10/25 06:09:27;;;;;;;;;;;14.10;99.90;;;;;;4991257;28;19914;-65
2022/10/25 06:11:53;;;;;;;;;;;14.10;99.90;;;;;;4998274;28;20348;-64
2022/10/25 06:14:18;;;;;;;;;;;14.10;99.90;;;;;;4992921;28;20304;-64
2022/10/25 06:16:44;;;;;;;;;;;14.10;99.90;;;;;;4991556;28;19953;-64
2022/10/25 06:19:09;;;;;;;;;;;14.10;99.90;;;;;;5002065;28;19925;-65
2022/10/25 06:21:35;;;;;;;;;;;14.20;99.90;;;;;;4995805;28;19910;-65
2022/10/25 06:24:01;;;;;;;;;;;14.20;99.90;;;;;;4996634;28;20033;-64
2022/10/25 06:26:27;;;;;;;;;;;14.20;99.90;;;;;;4997301;28;19919;-65
2022/10/25 06:32:03;;;;;;;;;;;14.30;99.90;;;;;;4976175;28;20282;-65
2022/10/25 06:34:28;;;;;;;;;;;14.20;99.90;;;;;;4984399;28;19909;-65
2022/10/25 06:36:54;;;;;;;;;;;14.20;99.90;;;;;;4994513;28;19996;-65
2022/10/25 06:39:19;;;;;;;;;;;14.10;99.90;;;;;;5000757;28;19909;-63
2022/10/25 06:41:45;;;;;;;;;;;14.20;99.90;;;;;;5008823;28;20336;-64
2022/10/25 06:44:11;;;;;;;;;;;14.10;99.90;;;;;;4984134;28;19909;-64
2022/10/25 06:49:40;;;;;;;;;;;14.20;99.90;;;;;;4986936;28;19916;-63
2022/10/25 06:52:05;;;;;;;;;;;14.30;99.90;;;;;;4989545;28;21745;-63
2022/10/25 06:54:31;;;;;;;;;;;14.30;99.90;;;;;;4996556;28;19910;-63
2022/10/25 06:56:56;;;;;;;;;;;14.20;99.90;;;;;;4988728;28;20373;-61
2022/10/25 06:59:22;;;;;;;;;;;14.20;99.90;;;;;;4994889;28;19913;-64
2022/10/25 07:01:48;;;;;;;;;;;14.20;99.90;;;;;;4988687;28;19917;-63
2022/10/25 07:04:14;;;;;;;;;;;14.20;99.90;;;;;;4999378;28;19924;-65
2022/10/25 07:06:40;;;;;;;;;;;14.30;99.90;;;;;;4991012;28;19914;-65
2022/10/25 07:09:08;;;;;;;;;;;14.30;99.90;;;;;;4989686;28;20477;-65
2022/10/25 07:11:34;;;;;;;;;;;14.40;99.90;;;;;;4987979;28;19933;-64
2022/10/25 07:14:01;;;;;;;;;;;14.30;99.90;;;;;;4993424;28;19921;-63
2022/10/25 07:16:27;;;;;;;;;;;14.20;99.90;;;;;;4990016;28;19910;-64
2022/10/25 07:18:56;;;;;;;;;;;14.20;99.90;;;;;;4986564;28;19909;-63
2022/10/25 07:21:22;;;;;;;;;;;14.20;99.90;;;;;;4993843;28;19909;-64
2022/10/25 07:23:48;;;;;;;;;;;14.30;99.90;;;;;;4988378;28;20518;-63
2022/10/25 07:26:15;;;;;;;;;;;14.30;99.90;;;;;;4994641;28;19910;-64
2022/10/25 07:28:42;;;;;;;;;;;14.30;99.90;;;;;;4989351;28;19933;-65
2022/10/25 07:31:10;;;;;;;;;;;14.30;99.90;;;;;;4991693;28;19913;-65
2022/10/25 07:33:36;;;;;;;;;;;14.40;99.90;;;;;;4997302;28;19940;-64
2022/10/25 07:36:01;;;;;;;;;;;14.50;99.90;;;;;;4988845;28;19909;-65
2022/10/25 07:38:27;;;;;;;;;;;14.60;99.90;;;;;;4993084;28;19942;-65
2022/10/25 07:40:58;;;;;;;;;;;14.60;99.90;;;;;;4997519;28;20437;-65
2022/10/25 07:43:25;;;;;;;;;;;14.70;99.90;;;;;;5001972;28;19909;-65
2022/10/25 07:45:50;;;;;;;;;;;14.70;99.90;;;;;;4992990;28;19910;-65
2022/10/25 07:48:16;;;;;;;;;;;14.60;99.90;;;;;;4994503;28;19925;-65
2022/10/25 07:50:41;;;;;;;;;;;14.70;99.90;;;;;;4991832;28;20329;-66
2022/10/25 07:53:07;;;;;;;;;;;14.80;99.90;;;;;;4995437;28;20391;-65
2022/10/25 07:55:32;;;;;;;;;;;14.80;99.90;;;;;;4995117;28;19909;-65
2022/10/25 07:57:59;;;;;;;;;;;14.80;99.90;;;;;;4988761;28;19994;-65
2022/10/25 08:00:25;;;;;;;;;;;14.80;99.90;;;;;;4995378;28;20325;-65
2022/10/25 08:02:50;;;;;;;;;;;14.90;99.90;;;;;;4991015;28;19936;-64
2022/10/25 08:05:16;;;;;;;;;;;14.90;99.90;;;;;;4994813;28;19952;-65
2022/10/25 08:07:41;;;;;;;;;;;15.10;99.90;;;;;;4990268;28;20440;-65
2022/10/25 08:10:07;;;;;;;;;;;15.20;99.90;;;;;;4993614;28;19914;-66
2022/10/25 08:12:32;;;;;;;;;;;15.30;99.90;;;;;;4992890;28;19910;-66
2022/10/25 08:18:01;;;;;;;;;;;15.40;99.90;;;;;;4971307;28;20505;-62
2022/10/25 08:20:27;;;;;;;;;;;15.40;99.90;;;;;;4993135;28;20012;-62
2022/10/25 08:22:56;;;;;;;;;;;15.20;99.90;;;;;;4989990;28;19909;-61
2022/10/25 08:25:21;;;;;;;;;;;15.10;99.90;;;;;;4990174;28;19909;-61
2022/10/25 08:27:47;;;;;;;;;;;15.10;99.90;;;;;;4991878;28;19932;-61
2022/10/25 08:30:12;;;;;;;;;;;15.10;99.90;;;;;;4995853;28;19917;-62
2022/10/25 08:32:38;;;;;;;;;;;15.10;99.90;;;;;;4991886;28;19909;-62
2022/10/25 08:35:04;;;;;;;;;;;15.10;99.90;;;;;;4988537;28;19909;-62
2022/10/25 08:37:29;;;;;;;;;;;15.20;99.90;;;;;;4991925;28;20413;-60
2022/10/25 08:39:55;;;;;;;;;;;15.30;99.90;;;;;;4988602;28;19910;-61
2022/10/25 08:42:29;;;;;;;;;;;15.40;99.90;;;;;;4988774;28;19909;-61
2022/10/25 08:45:00;;;;;;;;;;;15.50;99.90;;;;;;4993747;28;20333;-62
2022/10/25 08:47:40;;;;;;;;;;;15.60;99.90;;;;;;4994117;28;20009;-62
2022/10/25 08:50:26;;;;;;;;;;;15.70;99.90;;;;;;4991797;28;19964;-62
2022/10/25 08:52:54;;;;;;;;;;;15.70;99.90;;;;;;4988473;28;19910;-61
2022/10/25 08:55:23;;;;;;;;;;;15.80;99.90;;;;;;4992568;28;20353;-60
2022/10/25 08:57:50;;;;;;;;;;;16.00;99.90;;;;;;4987193;28;19916;-60
2022/10/25 09:00:21;;;;;;;;;;;16.10;99.90;;;;;;4994673;28;19910;-60
2022/10/25 09:02:46;;;;;;;;;;;16.20;99.90;;;;;;4988240;28;20258;-61
2022/10/25 09:05:15;;;;;;;;;;;16.30;99.90;;;;;;4994247;28;19909;-61
2022/10/25 09:07:55;;;;;;;;;;;16.50;99.90;;;;;;4988408;28;19918;-60
2022/10/25 09:10:26;;;;;;;;;;;16.50;99.90;;;;;;4986377;28;19910;-62
2022/10/25 09:12:59;;;;;;;;;;;16.60;99.90;;;;;;4985593;28;19937;-61
2022/10/25 09:15:31;;;;;;;;;;;16.60;99.90;;;;;;4992206;28;19910;-61
2022/10/25 09:17:56;;;;;;;;;;;16.60;99.90;;;;;;4990322;28;20259;-61
2022/10/25 09:20:22;;;;;;;;;;;16.50;99.90;;;;;;4997263;28;20420;-61
2022/10/25 09:22:49;;;;;;;;;;;16.50;99.90;;;;;;4991406;28;19914;-60
2022/10/25 09:25:30;;;;;;;;;;;16.50;99.90;;;;;;4991495;28;19917;-61
2022/10/25 09:28:02;;;;;;;;;;;16.50;99.90;;;;;;4997537;28;20004;-61
2022/10/25 09:30:36;;;;;;;;;;;16.50;99.90;;;;;;4996775;28;19959;-61
2022/10/25 09:33:04;;;;;;;;;;;16.50;99.90;;;;;;4989119;28;19963;-61
2022/10/25 09:35:33;;;;;;;;;;;16.50;99.90;;;;;;4995103;28;19910;-61
2022/10/25 09:38:05;;;;;;;;;;;16.60;99.90;;;;;;4991208;28;19910;-60
2022/10/25 09:40:55;;;;;;;;;;;16.60;99.90;;;;;;4985789;28;20342;-61
2022/10/25 09:43:24;;;;;;;;;;;16.70;99.90;;;;;;4984802;28;20250;-61
2022/10/25 09:45:55;;;;;;;;;;;16.70;99.90;;;;;;4993432;28;19987;-62
2022/10/25 09:48:24;;;;;;;;;;;16.80;99.90;;;;;;4993043;28;19968;-61
2022/10/25 09:50:52;;;;;;;;;;;16.80;99.90;;;;;;4992552;28;20114;-61
2022/10/25 09:53:17;;;;;;;;;;;16.80;99.90;;;;;;4993943;28;19910;-60
2022/10/25 09:56:00;;;;;;;;;;;16.80;99.90;;;;;;4995863;28;19956;-60
2022/10/25 09:58:32;;;;;;;;;;;16.70;99.90;;;;;;4992221;28;19910;-60
2022/10/25 10:00:59;;;;;;;;;;;16.70;99.90;;;;;;4995391;28;20331;-61
2022/10/25 10:03:27;;;;;;;;;;;16.80;99.90;;;;;;4999226;28;19991;-63
2022/10/25 10:05:55;;;;;;;;;;;17.00;99.90;;;;;;5006905;28;20234;-62
2022/10/25 10:08:21;;;;;;;;;;;17.00;99.90;;;;;;5000437;28;20396;-62
2022/10/25 10:10:47;;;;;;;;;;;17.10;99.90;;;;;;4996144;28;19909;-65
2022/10/25 10:13:18;;;;;;;;;;;17.10;99.90;;;;;;4998123;28;19909;-61
2022/10/25 10:15:47;;;;;;;;;;;17.10;99.90;;;;;;5003006;28;20076;-62
2022/10/25 10:18:20;;;;;;;;;;;17.00;99.90;;;;;;5004580;28;19936;-62
2022/10/25 10:21:15;;;;;;;;;;;16.90;99.90;;;;;;4993965;28;20004;-62
2022/10/25 10:23:46;;;;;;;;;;;16.90;99.90;;;;;;4989494;28;20282;-62
2022/10/25 10:26:32;;;;;;;;;;;17.20;99.90;;;;;;4991414;28;20346;-62
2022/10/25 10:29:00;;;;;;;;;;;17.20;99.90;;;;;;4999167;28;19928;-62
2022/10/25 10:31:32;;;;;;;;;;;16.90;99.90;;;;;;4997235;28;19909;-62
2022/10/25 10:33:57;;;;;;;;;;;16.70;99.90;;;;;;4985729;28;19988;-62
2022/10/25 10:36:25;;;;;;;;;;;16.80;99.90;;;;;;4997556;28;19987;-61
2022/10/25 10:38:51;;;;;;;;;;;16.90;99.90;;;;;;4993223;28;19913;-60
2022/10/25 10:41:25;;;;;;;;;;;16.90;99.90;;;;;;4996523;28;20044;-60
2022/10/25 10:43:51;;;;;;;;;;;17.30;99.90;;;;;;4993492;28;19910;-64
2022/10/25 10:46:18;;;;;;;;;;;17.50;99.90;;;;;;4996732;28;20349;-60
2022/10/25 10:48:45;;;;;;;;;;;17.70;99.90;;;;;;5008315;28;19909;-60
2022/10/25 10:51:18;;;;;;;;;;;17.80;99.90;;;;;;5000350;28;19909;-61
2022/10/25 10:53:44;;;;;;;;;;;18.00;99.90;;;;;;4983578;28;19909;-60
2022/10/25 10:56:17;;;;;;;;;;;18.30;99.90;;;;;;4990616;28;19917;-59
2022/10/25 10:58:46;;;;;;;;;;;18.30;99.90;;;;;;5004783;28;19915;-59
2022/10/25 11:01:15;;;;;;;;;;;18.10;99.90;;;;;;5004861;28;19951;-59
2022/10/25 11:03:40;;;;;;;;;;;18.00;99.90;;;;;;5003466;28;19952;-59
2022/10/25 11:06:09;;;;;;;;;;;18.20;99.90;;;;;;4999531;28;20475;-60
2022/10/25 11:08:35;;;;;;;;;;;18.20;99.90;;;;;;4995186;28;19917;-60
2022/10/25 11:11:19;;;;;;;;;;;18.60;99.90;;;;;;4991954;28;19918;-61
2022/10/25 11:13:50;;;;;;;;;;;19.30;99.90;;;;;;4989984;28;19999;-60
2022/10/25 11:16:31;;;;;;;;;;;19.60;99.90;;;;;;4991814;28;19945;-60
2022/10/25 11:19:03;;;;;;;;;;;19.80;99.90;;;;;;4987461;28;19909;-60
2022/10/25 11:21:44;;;;;;;;;;;20.20;99.90;;;;;;4993979;28;19924;-61
2022/10/25 11:24:09;;;;;;;;;;;20.10;99.90;;;;;;4988592;28;20357;-60
2022/10/25 11:26:38;;;;;;;;;;;20.20;99.90;;;;;;4996902;28;19920;-61
2022/10/25 11:29:03;;;;;;;;;;;20.30;99.90;;;;;;4992399;28;19914;-60
2022/10/25 11:31:38;;;;;;;;;;;20.40;99.90;;;;;;4991313;28;20356;-61
2022/10/25 11:34:33;;;;;;;;;;;20.70;99.90;;;;;;4989047;28;19910;-60
2022/10/25 11:37:16;;;;;;;;;;;20.60;99.90;;;;;;4959926;28;20049;-60
2022/10/25 11:39:42;;;;;;;;;;;20.00;99.90;;;;;;4964289;28;20365;-60
2022/10/25 11:42:07;;;;;;;;;;;19.40;99.90;;;;;;4965810;28;19914;-61
2022/10/25 11:44:45;;;;;;;;;;;19.10;99.90;;;;;;4963605;28;19910;-60
2022/10/25 11:47:20;;;;;;;;;;;18.80;99.90;;;;;;4965760;28;20377;-61
2022/10/25 11:50:05;;;;;;;;;;;18.20;99.90;;;;;;4966747;28;19914;-60
2022/10/25 11:52:51;;;;;;;;;;;18.20;99.90;;;;;;4968808;28;19997;-60
2022/10/25 11:55:35;;;;;;;;;;;19.30;99.90;;;;;;4969150;28;19938;-60
2022/10/25 11:58:03;;;;;;;;;;;20.00;99.90;;;;;;4961999;28;20041;-61
2022/10/25 12:00:48;;;;;;;;;;;19.60;99.90;;;;;;4957323;28;20394;-61
2022/10/25 12:03:43;;;;;;;;;;;19.80;99.90;;;;;;4964092;28;19918;-60
2022/10/25 12:06:12;;;;;;;;;;;20.70;99.90;;;;;;4938197;28;19910;-60
2022/10/25 12:08:56;;;;;;;;;;;21.10;99.90;;;;;;4968925;28;20009;-60
2022/10/25 12:11:32;;;;;;;;;;;20.80;99.90;;;;;;4968843;28;19910;-60
2022/10/25 12:14:04;;;;;;;;;;;20.00;99.90;;;;;;4987408;28;19910;-60
2022/10/25 12:16:31;;;;;;;;;;;19.40;99.90;;;;;;4991213;28;19910;-59
2022/10/25 12:19:25;;;;;;;;;;;19.20;99.90;;;;;;4994738;28;19917;-60
2022/10/25 12:21:53;;;;;;;;;;;19.40;99.90;;;;;;4982394;28;19910;-58
2022/10/25 12:24:20;;;;;;;;;;;19.10;99.90;;;;;;4994910;28;19925;-60
2022/10/25 12:26:47;;;;;;;;;;;18.80;99.90;;;;;;4994611;28;19914;-61
2022/10/25 12:29:16;;;;;;;;;;;18.80;99.90;;;;;;4990783;28;19961;-61
2022/10/25 12:31:44;;;;;;;;;;;19.20;99.90;;;;;;4985201;28;19913;-61
2022/10/25 12:34:13;;;;;;;;;;;19.90;99.90;;;;;;4979847;28;19918;-60
2022/10/25 12:37:04;;;;;;;;;;;20.20;99.90;;;;;;4986178;28;19914;-60
2022/10/25 12:39:37;;;;;;;;;;;20.50;99.90;;;;;;4973520;28;19909;-60
2022/10/25 12:42:10;;;;;;;;;;;20.40;99.90;;;;;;4983651;28;19910;-61
2022/10/25 12:44:54;;;;;;;;;;;20.60;99.90;;;;;;4978139;28;19918;-60
2022/10/25 12:47:36;;;;;;;;;;;20.90;99.90;;;;;;4987843;28;19918;-61
2022/10/25 12:50:17;;;;;;;;;;;21.10;99.90;;;;;;4985798;28;20385;-61
2022/10/25 12:53:01;;;;;;;;;;;20.40;99.90;;;;;;4985574;28;19980;-60
2022/10/25 12:55:49;;;;;;;;;;;20.00;99.90;;;;;;4981059;28;19992;-61
2022/10/25 12:58:47;;;;;;;;;;;20.00;99.90;;;;;;4960169;28;19945;-61
2022/10/25 13:01:12;;;;;;;;;;;19.80;99.90;;;;;;4921523;28;19917;-60
2022/10/25 13:03:44;;;;;;;;;;;20.10;99.90;;;;;;4962870;28;19918;-61
2022/10/25 13:06:19;;;;;;;;;;;20.70;99.90;;;;;;4960727;28;20027;-61
2022/10/25 13:08:45;;;;;;;;;;;21.30;99.90;;;;;;4956312;28;19993;-60
2022/10/25 13:11:10;;;;;;;;;;;21.30;99.90;;;;;;4965601;28;20057;-59
2022/10/25 13:13:47;;;;;;;;;;;21.00;99.90;;;;;;4967407;28;20285;-60
2022/10/25 13:16:21;;;;;;;;;;;20.60;99.90;;;;;;4964027;28;20025;-60
2022/10/25 13:18:46;;;;;;;;;;;20.00;99.90;;;;;;4963303;28;20421;-61
2022/10/25 13:21:14;;;;;;;;;;;20.10;99.90;;;;;;4963454;28;19910;-61
2022/10/25 13:23:42;;;;;;;;;;;20.30;99.90;;;;;;4966292;28;19910;-61
2022/10/25 13:26:20;;;;;;;;;;;20.20;99.90;;;;;;4962008;28;20331;-60
2022/10/25 13:28:47;;;;;;;;;;;20.00;99.90;;;;;;4961750;28;20069;-61
2022/10/25 13:31:31;;;;;;;;;;;20.00;99.90;;;;;;4964978;28;19941;-61
2022/10/25 13:34:12;;;;;;;;;;;20.20;99.90;;;;;;4973427;28;20056;-61
2022/10/25 13:36:47;;;;;;;;;;;20.80;99.90;;;;;;4991765;28;20041;-61
2022/10/25 13:39:14;;;;;;;;;;;20.80;99.90;;;;;;4987280;28;20365;-61
2022/10/25 13:41:44;;;;;;;;;;;21.00;99.90;;;;;;4997943;28;20004;-60
2022/10/25 13:44:18;;;;;;;;;;;21.70;99.90;;;;;;4988276;28;19909;-61
2022/10/25 13:46:44;;;;;;;;;;;21.80;99.90;;;;;;4987715;28;19925;-61
2022/10/25 13:49:28;;;;;;;;;;;21.40;99.90;;;;;;4992574;28;20008;-61
2022/10/25 13:51:57;;;;;;;;;;;21.10;99.90;;;;;;4988163;28;19913;-61
2022/10/25 13:54:24;;;;;;;;;;;21.00;99.90;;;;;;4991645;28;19910;-61
2022/10/25 13:56:50;;;;;;;;;;;20.90;99.90;;;;;;4987606;28;19913;-62
2022/10/25 13:59:54;;;;;;;;;;;20.80;99.90;;;;;;4991267;28;19917;-61
2022/10/25 14:02:20;;;;;;;;;;;20.60;99.90;;;;;;4969216;28;19996;-61
2022/10/25 14:04:46;;;;;;;;;;;20.20;99.90;;;;;;4971444;28;20005;-61
2022/10/25 14:07:30;;;;;;;;;;;19.90;99.90;;;;;;4969446;28;19946;-62
2022/10/25 14:09:56;;;;;;;;;;;20.10;99.90;;;;;;4970828;28;19969;-61
2022/10/25 14:12:22;;;;;;;;;;;20.20;99.90;;;;;;4965649;28;19913;-62
2022/10/25 14:15:01;;;;;;;;;;;20.90;99.90;;;;;;4971633;28;19910;-62
2022/10/25 14:17:29;;;;;;;;;;;21.30;99.90;;;;;;4971441;28;19953;-62
2022/10/25 14:20:00;;;;;;;;;;;20.90;99.90;;;;;;4967589;28;19928;-60
2022/10/25 14:22:32;;;;;;;;;;;21.10;99.90;;;;;;4976095;28;20281;-60
2022/10/25 14:24:59;;;;;;;;;;;21.50;99.90;;;;;;4968436;28;19953;-61
2022/10/25 14:27:27;;;;;;;;;;;21.20;99.90;;;;;;4970403;28;19925;-60
2022/10/25 14:29:52;;;;;;;;;;;20.70;99.90;;;;;;4974365;28;20001;-61
2022/10/25 14:32:19;;;;;;;;;;;20.30;99.90;;;;;;4973209;28;20460;-60
2022/10/25 14:34:48;;;;;;;;;;;20.10;99.90;;;;;;4993837;28;19917;-61
2022/10/25 14:37:14;;;;;;;;;;;19.90;99.90;;;;;;4988468;28;20330;-60
2022/10/25 14:39:50;;;;;;;;;;;19.60;99.90;;;;;;4991426;28;19936;-62
2022/10/25 14:42:16;;;;;;;;;;;19.20;99.90;;;;;;4987743;28;19909;-61